Time,TemperatureF,DewpointF,PressureIn,WindDirection,WindDirectionDegrees,WindSpeedMPH,WindSpeedGustMPH,Humidity,HourlyPrecipIn,Conditions,Clouds,dailyrainin,SoftwareType,DateUTC
2013-03-14 00:02:00,24.0,18.0,-100.00,South,180,4.0,10.0,77,0.00,,,0.00,,2013-03-14 05:02:00,
2013-03-14 00:12:00,24.0,18.0,-100.00,South,185,1.0,11.0,78,0.00,,,0.00,,2013-03-14 05:12:00,
2013-03-14 00:22:00,24.0,18.0,-100.00,South,190,4.0,10.0,77,0.00,,,0.00,,2013-03-14 05:22:00,
2013-03-14 00:33:00,24.0,18.0,-100.00,South,190,6.0,10.0,77,0.00,,,0.00,,2013-03-14 05:33:00,
2013-03-14 00:42:00,24.0,18.0,-100.00,South,185,8.0,12.0,78,0.00,,,0.00,,2013-03-14 05:42:00,
2013-03-14 00:52:00,24.0,18.0,-100.00,South,180,2.0,10.0,78,0.00,,,0.00,,2013-03-14 05:52:00,
2013-03-14 01:02:00,24.0,19.0,-100.00,South,185,2.0,9.0,79,0.00,,,0.00,,2013-03-14 06:02:00,
2013-03-14 01:12:00,24.0,19.0,-100.00,South,180,5.0,9.0,80,0.00,,,0.00,,2013-03-14 06:12:00,
2013-03-14 01:22:00,24.0,19.0,-100.00,South,185,0.0,7.0,81,0.00,,,0.00,,2013-03-14 06:22:00,
2013-03-14 01:32:00,24.0,19.0,-100.00,South,170,0.0,7.0,81,0.00,,,0.00,,2013-03-14 06:32:00,
2013-03-14 01:42:00,24.0,19.0,-100.00,South,175,5.0,8.0,82,0.00,,,0.00,,2013-03-14 06:42:00,
2013-03-14 01:52:00,24.0,19.0,-100.00,SSE,165,7.0,9.0,83,0.00,,,0.00,,2013-03-14 06:52:00,
2013-03-14 02:02:00,24.0,19.0,-100.00,South,170,4.0,7.0,83,0.00,,,0.00,,2013-03-14 07:02:00,
2013-03-14 02:12:00,24.0,19.0,-100.00,South,170,6.0,9.0,83,0.00,,,0.00,,2013-03-14 07:12:00,
2013-03-14 02:22:00,24.0,19.0,-100.00,South,175,6.0,9.0,84,0.00,,,0.00,,2013-03-14 07:22:00,
2013-03-14 02:32:00,25.0,21.0,-100.00,South,170,6.0,9.0,84,0.00,,,0.00,,2013-03-14 07:32:00,
2013-03-14 02:42:00,25.0,21.0,-100.00,South,175,2.0,11.0,83,0.00,,,0.00,,2013-03-14 07:42:00,
2013-03-14 02:52:00,25.0,21.0,-100.00,South,180,4.0,7.0,82,0.00,,,0.00,,2013-03-14 07:52:00,
2013-03-14 03:02:00,25.0,21.0,-100.00,South,175,6.0,9.0,82,0.00,,,0.00,,2013-03-14 08:02:00,
2013-03-14 03:12:00,25.0,21.0,-100.00,South,185,7.0,10.0,82,0.00,,,0.00,,2013-03-14 08:12:00,
2013-03-14 03:21:00,25.0,21.0,-100.00,South,185,2.0,10.0,83,0.00,,,0.00,,2013-03-14 08:21:00,
2013-03-14 03:32:00,25.0,21.0,-100.00,South,170,6.0,8.0,87,0.00,,,0.00,,2013-03-14 08:32:00,
2013-03-14 03:41:00,25.0,21.0,-100.00,South,170,4.0,9.0,88,0.00,,,0.00,,2013-03-14 08:41:00,
2013-03-14 03:51:00,25.0,21.0,-100.00,SSE,155,7.0,9.0,87,0.00,,,0.00,,2013-03-14 08:51:00,
2013-03-14 04:01:00,25.0,21.0,-100.00,SE,140,7.0,9.0,87,0.00,,,0.00,,2013-03-14 09:01:00,
2013-03-14 04:12:00,25.0,21.0,-100.00,SSE,165,0.0,10.0,85,0.00,,,0.00,,2013-03-14 09:12:00,
2013-03-14 04:22:00,25.0,21.0,-100.00,SE,135,2.0,8.0,84,0.00,,,0.00,,2013-03-14 09:22:00,
2013-03-14 04:32:00,26.0,21.0,-100.00,South,185,1.0,6.0,84,0.00,,,0.00,,2013-03-14 09:32:00,
2013-03-14 04:42:00,25.0,23.0,-100.00,SSE,150,9.0,13.0,91,0.00,,,0.00,,2013-03-14 09:42:00,
2013-03-14 04:52:00,25.0,23.0,-100.00,SE,145,10.0,14.0,93,0.00,,,0.00,,2013-03-14 09:52:00,
2013-03-14 05:02:00,25.0,23.0,-100.00,SSE,160,9.0,14.0,94,0.00,,,0.00,,2013-03-14 10:02:00,
2013-03-14 05:12:00,25.0,23.0,-100.00,SSE,150,6.0,11.0,95,0.00,,,0.00,,2013-03-14 10:12:00,
2013-03-14 05:22:00,25.0,23.0,-100.00,SE,135,11.0,14.0,96,0.00,,,0.00,,2013-03-14 10:22:00,
2013-03-14 05:32:00,25.0,25.0,-100.00,SSE,150,11.0,14.0,96,0.00,,,0.00,,2013-03-14 10:32:00,
2013-03-14 05:42:00,25.0,25.0,-100.00,SE,140,9.0,14.0,96,0.00,,,0.00,,2013-03-14 10:42:00,
2013-03-14 05:52:00,26.0,25.0,-100.00,SE,130,8.0,12.0,96,0.00,,,0.00,,2013-03-14 10:52:00,
2013-03-14 06:02:00,26.0,25.0,-100.00,SE,145,7.0,10.0,96,0.00,,,0.00,,2013-03-14 11:02:00,
2013-03-14 06:12:00,26.0,25.0,-100.00,SSE,150,11.0,15.0,95,0.00,,,0.00,,2013-03-14 11:12:00,
2013-03-14 06:22:00,26.0,25.0,-100.00,SSE,150,12.0,16.0,95,0.00,,,0.00,,2013-03-14 11:22:00,
2013-03-14 06:33:00,26.0,25.0,-100.00,SSE,150,10.0,14.0,94,0.00,,,0.00,,2013-03-14 11:33:00,
2013-03-14 06:42:00,26.0,25.0,-100.00,SSE,150,10.0,12.0,94,0.00,,,0.00,,2013-03-14 11:42:00,
2013-03-14 06:52:00,25.0,23.0,-100.00,SE,125,8.0,13.0,93,0.00,,,0.00,,2013-03-14 11:52:00,
2013-03-14 07:02:00,25.0,23.0,-100.00,ESE,120,10.0,12.0,93,0.00,,,0.00,,2013-03-14 12:02:00,
2013-03-14 07:12:00,25.0,23.0,-100.00,SE,135,7.0,12.0,93,0.00,,,0.00,,2013-03-14 12:12:00,
2013-03-14 07:22:00,25.0,23.0,-100.00,ESE,110,4.0,6.0,92,0.00,,,0.00,,2013-03-14 12:22:00,
2013-03-14 07:33:00,25.0,23.0,-100.00,ESE,110,7.0,9.0,92,0.00,,,0.00,,2013-03-14 12:33:00,
2013-03-14 07:42:00,25.0,23.0,-100.00,ESE,110,6.0,9.0,92,0.00,,,0.00,,2013-03-14 12:42:00,
2013-03-14 07:52:00,25.0,23.0,-100.00,ESE,115,4.0,7.0,92,0.00,,,0.00,,2013-03-14 12:52:00,
2013-03-14 08:02:00,24.0,23.0,-100.00,ESE,120,5.0,9.0,91,0.00,,,0.00,,2013-03-14 13:02:00,
2013-03-14 08:12:00,24.0,23.0,-100.00,ESE,110,5.0,7.0,91,0.00,,,0.00,,2013-03-14 13:12:00,
2013-03-14 08:22:00,24.0,21.0,-100.00,ESE,115,6.0,7.0,91,0.00,,,0.00,,2013-03-14 13:22:00,
2013-03-14 08:32:00,24.0,21.0,-100.00,ESE,110,6.0,7.0,91,0.00,,,0.00,,2013-03-14 13:32:00,
2013-03-14 08:42:00,24.0,21.0,-100.00,SE,125,4.0,6.0,89,0.00,,,0.00,,2013-03-14 13:42:00,
2013-03-14 08:52:00,25.0,21.0,-100.00,SE,135,6.0,7.0,87,0.00,,,0.00,,2013-03-14 13:52:00,
2013-03-14 09:02:00,25.0,21.0,-100.00,SE,130,6.0,9.0,85,0.00,,,0.00,,2013-03-14 14:02:00,
2013-03-14 09:12:00,26.0,21.0,-100.00,ESE,120,4.0,7.0,84,0.00,,,0.00,,2013-03-14 14:12:00,
2013-03-14 09:22:00,26.0,21.0,-100.00,ESE,105,5.0,9.0,83,0.00,,,0.00,,2013-03-14 14:22:00,
2013-03-14 09:32:00,27.0,21.0,-100.00,SE,125,0.0,7.0,81,0.00,,,0.00,,2013-03-14 14:32:00,
2013-03-14 09:42:00,27.0,21.0,-100.00,SE,125,6.0,9.0,80,0.00,,,0.00,,2013-03-14 14:42:00,
2013-03-14 09:52:00,27.0,21.0,-100.00,ESE,120,7.0,9.0,79,0.00,,,0.00,,2013-03-14 14:52:00,
2013-03-14 10:02:00,28.0,23.0,-100.00,SE,125,6.0,9.0,79,0.00,,,0.00,,2013-03-14 15:02:00,
2013-03-14 10:12:00,28.0,23.0,-100.00,SE,135,4.0,9.0,79,0.00,,,0.00,,2013-03-14 15:12:00,
2013-03-14 10:22:00,28.0,23.0,-100.00,SE,140,7.0,10.0,78,0.00,,,0.00,,2013-03-14 15:22:00,
2013-03-14 10:32:00,29.0,23.0,-100.00,SSE,155,6.0,9.0,78,0.00,,,0.00,,2013-03-14 15:32:00,
2013-03-14 10:42:00,29.0,23.0,-100.00,SSE,160,8.0,10.0,76,0.00,,,0.00,,2013-03-14 15:42:00,
2013-03-14 10:52:00,29.0,23.0,-100.00,SSE,155,7.0,11.0,76,0.00,,,0.00,,2013-03-14 15:52:00,
2013-03-14 11:03:00,30.0,23.0,-100.00,SSE,165,4.0,8.0,75,0.00,,,0.00,,2013-03-14 16:03:00,
2013-03-14 11:12:00,30.0,23.0,-100.00,SSE,165,6.0,7.0,75,0.00,,,0.00,,2013-03-14 16:12:00,
2013-03-14 11:22:00,30.0,23.0,-100.00,SSE,160,4.0,6.0,73,0.00,,,0.00,,2013-03-14 16:22:00,
2013-03-14 11:32:00,31.0,23.0,-100.00,SSE,160,4.0,7.0,72,0.00,,,0.00,,2013-03-14 16:32:00,
2013-03-14 11:42:00,31.0,25.0,-100.00,SSE,160,4.0,7.0,73,0.00,,,0.00,,2013-03-14 16:42:00,
2013-03-14 11:52:00,31.0,23.0,-100.00,SE,145,4.0,7.0,71,0.00,,,0.00,,2013-03-14 16:52:00,
2013-03-14 12:02:00,32.0,23.0,-100.00,SSE,150,4.0,6.0,70,0.00,,,0.00,,2013-03-14 17:02:00,
2013-03-14 12:12:00,33.0,25.0,-100.00,SE,140,3.0,6.0,71,0.00,,,0.00,,2013-03-14 17:12:00,
2013-03-14 12:23:00,32.0,23.0,-100.00,SE,125,6.0,8.0,69,0.00,,,0.00,,2013-03-14 17:23:00,
2013-03-14 12:32:00,33.0,25.0,-100.00,ESE,120,1.0,6.0,68,0.00,,,0.00,,2013-03-14 17:32:00,
2013-03-14 12:42:00,33.0,23.0,-100.00,SE,140,3.0,6.0,67,0.00,,,0.00,,2013-03-14 17:42:00,
2013-03-14 12:52:00,35.0,25.0,-100.00,SSE,165,1.0,6.0,66,0.00,,,0.00,,2013-03-14 17:52:00,
2013-03-14 13:02:00,35.0,25.0,-100.00,SSE,150,0.0,3.0,64,0.00,,,0.00,,2013-03-14 18:02:00,
2013-03-14 13:12:00,35.0,25.0,-100.00,SE,125,0.0,3.0,64,0.00,,,0.00,,2013-03-14 18:12:00,
2013-03-14 13:22:00,35.0,25.0,-100.00,SE,140,2.0,4.0,65,0.00,,,0.00,,2013-03-14 18:22:00,
2013-03-14 13:32:00,35.0,25.0,-100.00,SE,145,4.0,6.0,66,0.00,,,0.00,,2013-03-14 18:32:00,
2013-03-14 13:42:00,35.0,25.0,-100.00,ESE,105,3.0,7.0,66,0.00,,,0.00,,2013-03-14 18:42:00,
2013-03-14 13:52:00,36.0,23.0,-100.00,ESE,105,0.0,6.0,61,0.00,,,0.00,,2013-03-14 18:52:00,
2013-03-14 14:02:00,37.0,25.0,-100.00,ESE,115,0.0,0.0,60,0.00,,,0.00,,2013-03-14 19:02:00,
2013-03-14 14:12:00,37.0,25.0,-100.00,South,180,0.0,0.0,62,0.00,,,0.00,,2013-03-14 19:12:00,
2013-03-14 14:22:00,37.0,25.0,-100.00,South,180,0.0,0.0,61,0.00,,,0.00,,2013-03-14 19:22:00,
2013-03-14 14:32:00,38.0,25.0,-100.00,SSW,200,0.0,0.0,58,0.00,,,0.00,,2013-03-14 19:32:00,
2013-03-14 14:42:00,38.0,25.0,-100.00,SSW,205,0.0,0.0,59,0.00,,,0.00,,2013-03-14 19:42:00,
2013-03-14 14:52:00,38.0,25.0,-100.00,SE,130,0.0,0.0,58,0.00,,,0.00,,2013-03-14 19:52:00,
2013-03-14 15:02:00,36.0,25.0,-100.00,ESE,120,0.0,0.0,61,0.00,,,0.00,,2013-03-14 20:02:00,
2013-03-14 15:11:00,36.0,25.0,-100.00,SE,130,4.0,6.0,63,0.00,,,0.00,,2013-03-14 20:11:00,
2013-03-14 15:22:00,36.0,25.0,-100.00,ESE,105,5.0,6.0,62,0.00,,,0.00,,2013-03-14 20:22:00,
2013-03-14 15:32:00,36.0,25.0,-100.00,ESE,105,5.0,6.0,64,0.00,,,0.00,,2013-03-14 20:32:00,
2013-03-14 15:42:00,36.0,25.0,-100.00,ENE,75,0.0,5.0,61,0.00,,,0.00,,2013-03-14 20:42:00,
2013-03-14 15:52:00,38.0,25.0,-100.00,SE,125,0.0,0.0,59,0.00,,,0.00,,2013-03-14 20:52:00,
2013-03-14 16:02:00,38.0,25.0,-100.00,NNE,30,0.0,0.0,59,0.00,,,0.00,,2013-03-14 21:02:00,
2013-03-14 16:12:00,37.0,25.0,-100.00,ESE,120,0.0,0.0,61,0.00,,,0.00,,2013-03-14 21:12:00,
2013-03-14 16:22:00,38.0,25.0,-100.00,SSE,165,0.0,0.0,59,0.00,,,0.00,,2013-03-14 21:22:00,
2013-03-14 16:32:00,36.0,25.0,-100.00,North,5,0.0,0.0,64,0.00,,,0.00,,2013-03-14 21:32:00,
2013-03-14 16:43:00,38.0,25.0,-100.00,SE,140,0.0,0.0,59,0.00,,,0.00,,2013-03-14 21:43:00,
2013-03-14 16:52:00,38.0,25.0,-100.00,SSE,160,0.0,0.0,59,0.00,,,0.00,,2013-03-14 21:52:00,
2013-03-14 17:03:00,38.0,27.0,-100.00,SSE,160,0.0,0.0,62,0.00,,,0.00,,2013-03-14 22:03:00,
2013-03-14 17:12:00,37.0,25.0,-100.00,SSE,165,0.0,2.0,63,0.00,,,0.00,,2013-03-14 22:12:00,
2013-03-14 17:23:00,36.0,27.0,-100.00,SE,145,0.0,3.0,66,0.00,,,0.00,,2013-03-14 22:23:00,
2013-03-14 17:33:00,36.0,25.0,-100.00,SE,130,0.0,1.0,63,0.00,,,0.00,,2013-03-14 22:33:00,
2013-03-14 17:42:00,36.0,25.0,-100.00,SE,140,0.0,0.0,66,0.00,,,0.00,,2013-03-14 22:42:00,
2013-03-14 17:52:00,36.0,27.0,-100.00,SSE,155,0.0,6.0,66,0.00,,,0.00,,2013-03-14 22:52:00,
2013-03-14 18:02:00,35.0,27.0,-100.00,SSE,155,0.0,0.0,69,0.00,,,0.00,,2013-03-14 23:02:00,
2013-03-14 18:12:00,35.0,27.0,-100.00,SE,145,0.0,3.0,71,0.00,,,0.00,,2013-03-14 23:12:00,
2013-03-14 18:22:00,35.0,27.0,-100.00,SSE,165,2.0,4.0,71,0.00,,,0.00,,2013-03-14 23:22:00,
2013-03-14 18:33:00,34.0,27.0,-100.00,SSE,155,4.0,4.0,71,0.00,,,0.00,,2013-03-14 23:33:00,
2013-03-14 18:42:00,35.0,27.0,-100.00,SSE,165,0.0,4.0,69,0.00,,,0.00,,2013-03-14 23:42:00,
2013-03-14 18:53:00,35.0,27.0,-100.00,South,170,0.0,3.0,70,0.00,,,0.00,,2013-03-14 23:53:00,
2013-03-14 19:02:00,34.0,25.0,-100.00,SW,225,0.0,0.0,70,0.00,,,0.00,,2013-03-15 00:02:00,
2013-03-14 19:12:00,32.0,25.0,-100.00,SW,230,0.0,0.0,75,0.00,,,0.00,,2013-03-15 00:12:00,
2013-03-14 19:22:00,34.0,27.0,-100.00,SSW,195,0.0,0.0,74,0.00,,,0.00,,2013-03-15 00:22:00,
2013-03-14 19:32:00,34.0,27.0,-100.00,SSW,205,0.0,0.0,71,0.00,,,0.00,,2013-03-15 00:32:00,
2013-03-14 19:42:00,34.0,25.0,-100.00,SSW,200,3.0,4.0,70,0.00,,,0.00,,2013-03-15 00:42:00,
2013-03-14 19:52:00,34.0,25.0,-100.00,SSW,205,3.0,5.0,70,0.00,,,0.00,,2013-03-15 00:52:00,
2013-03-14 20:02:00,33.0,25.0,-100.00,SW,220,2.0,4.0,72,0.00,,,0.00,,2013-03-15 01:02:00,
2013-03-14 20:11:00,31.0,25.0,-100.00,WSW,245,6.0,6.0,77,0.00,,,0.00,,2013-03-15 01:11:00,
2013-03-14 20:22:00,32.0,25.0,-100.00,WSW,250,4.0,7.0,75,0.00,,,0.00,,2013-03-15 01:22:00,
2013-03-14 20:32:00,31.0,25.0,-100.00,SW,225,3.0,5.0,77,0.00,,,0.00,,2013-03-15 01:32:00,
2013-03-14 20:42:00,32.0,25.0,-100.00,SW,215,3.0,4.0,76,0.00,,,0.00,,2013-03-15 01:42:00,
2013-03-14 20:52:00,33.0,25.0,-100.00,SW,220,3.0,6.0,74,0.00,,,0.00,,2013-03-15 01:52:00,
2013-03-14 21:02:00,31.0,25.0,-100.00,SSW,210,4.0,6.0,76,0.00,,,0.00,,2013-03-15 02:02:00,
2013-03-14 21:12:00,31.0,25.0,-100.00,SW,220,6.0,6.0,75,0.00,,,0.00,,2013-03-15 02:12:00,
2013-03-14 21:22:00,28.0,23.0,-100.00,SW,225,7.0,7.0,81,0.00,,,0.00,,2013-03-15 02:22:00,
2013-03-14 21:32:00,29.0,25.0,-100.00,SW,215,6.0,7.0,81,0.00,,,0.00,,2013-03-15 02:32:00,
2013-03-14 21:42:00,31.0,25.0,-100.00,SSW,200,0.0,6.0,79,0.00,,,0.00,,2013-03-15 02:42:00,
2013-03-14 21:52:00,31.0,25.0,-100.00,SSW,205,0.0,0.0,79,0.00,,,0.00,,2013-03-15 02:52:00,
2013-03-14 22:02:00,31.0,25.0,-100.00,SSW,205,0.0,0.0,80,0.00,,,0.00,,2013-03-15 03:02:00,
2013-03-14 22:12:00,30.0,25.0,-100.00,SSW,200,0.0,0.0,80,0.00,,,0.00,,2013-03-15 03:12:00,
2013-03-14 22:22:00,30.0,25.0,-100.00,SSW,205,0.0,0.0,81,0.00,,,0.00,,2013-03-15 03:22:00,
2013-03-14 22:33:00,28.0,23.0,-100.00,SW,220,0.0,0.0,81,0.00,,,0.00,,2013-03-15 03:33:00,
2013-03-14 22:42:00,29.0,25.0,-100.00,SW,235,0.0,0.0,86,0.00,,,0.00,,2013-03-15 03:42:00,
2013-03-14 22:52:00,30.0,27.0,-100.00,WSW,250,0.0,0.0,85,0.00,,,0.00,,2013-03-15 03:52:00,
2013-03-14 23:03:00,30.0,25.0,-100.00,WSW,250,0.0,0.0,83,0.00,,,0.00,,2013-03-15 04:03:00,
2013-03-14 23:12:00,30.0,25.0,-100.00,WSW,240,0.0,0.0,83,0.00,,,0.00,,2013-03-15 04:12:00,
2013-03-14 23:22:00,29.0,25.0,-100.00,WSW,250,0.0,0.0,85,0.00,,,0.00,,2013-03-15 04:22:00,
2013-03-14 23:32:00,27.0,23.0,-100.00,West,260,0.0,0.0,85,0.00,,,0.00,,2013-03-15 04:32:00,
2013-03-14 23:42:00,27.0,23.0,-100.00,WSW,250,0.0,0.0,86,0.00,,,0.00,,2013-03-15 04:42:00,
2013-03-14 23:52:00,27.0,25.0,-100.00,WSW,240,0.0,0.0,88,0.00,,,0.00,,2013-03-15 04:52:00,